aviador You're here:

YSSY Decoded Metar

SYDNEY in AUSTRALIA
Report Time2017-12-15 23:30:00
UTC Time2017-12-15 23:42:15
Flight Rules vfr VFR
Wind160° at 08 kt
W.Decomp.*RWY 16: 7.8 kt HW 1.7 kt LCW
RWY 07: 1.7 kt HW 7.8 kt RCW
W.Rank160° ranks 24
Current wind is below 160° avg. (11.4)
Visibility9999 m
Phenomena:N/A
Clouds:N/A
Expected CloudBase > 1,600 ft AGL from Temp-Dew spread
CeilingNone
Temp26°C (ISA +11)
Dew Point22°C (79% RH)
QNH1013 hPa
Density Alt1,631 ft
Elevation10 ft
Report Wrong Elevation
Raw Report
METAR YSSY 152330Z 16008KT CAVOK 26/22 Q1013
NOSIG=

Extra information for YSSY:More info

Metar Taf Metar & Taf Last 4 Metars F.Rules Stats Wind Profile Meteogram Temp Stats Airport Information Weather charts Add Link Nearby VenuesMetar ALERT Operation Metar Decoded Social comments